Flight Track Log - Related Links

Times and Time Zones

All times are in EST time to prevent confusion due to time zone crossing. See the JBU1483 flight status page for this flight to view local times or setup timezone preferences in your user account.

Time Position Orientation Groundspeed Altitude Reporting Facility
EST Latitude Longitude Course Direction KTS MPH feet Rate Location/Type
Wed 07:51:00 PM 28.7952 -78.4807 185° South  Level FlightAware Approximate
Wed 07:52:00 PM 28.6898 -78.4911 185° South  Level FlightAware Approximate
Wed 07:53:00 PM 28.5844 -78.5015 185° South  Level FlightAware Approximate
Wed 07:54:00 PM 28.4790 -78.5119 185° South  Level FlightAware Approximate
Wed 07:55:00 PM 28.3736 -78.5223 185° South  Level FlightAware Approximate
Wed 07:56:00 PM 28.2683 -78.5327 185° South  Level FlightAware Approximate
Wed 07:57:00 PM 28.1629 -78.5430 185° South  Level FlightAware Approximate
Wed 07:58:00 PM 28.0575 -78.5533 185° South  Level FlightAware Approximate
Wed 07:59:00 PM 27.9521 -78.5636 185° South  Level FlightAware Approximate
Wed 08:00:00 PM 27.8468 -78.5739 185° South  Level FlightAware Approximate
Wed 08:01:00 PM 27.7414 -78.5840 184° South  Level FlightAware Approximate
Wed 08:02:00 PM 27.6359 -78.5925 184° South  Level FlightAware Approximate
Wed 08:03:00 PM 27.5303 -78.6009 184° South  Level FlightAware Approximate
Wed 08:04:00 PM 27.4248 -78.6094 184° South  Level FlightAware Approximate
Wed 08:05:00 PM 27.3193 -78.6176 183° South  Level FlightAware Approximate
Wed 08:06:00 PM 27.2137 -78.6242 183° South  Level FlightAware Approximate
Wed 08:07:00 PM 27.1081 -78.6308 183° South  Level FlightAware Approximate
Wed 08:08:00 PM 27.0055 -78.6500 180° South  Level FlightAware Approximate
Wed 08:09:00 PM 26.8999 -78.6545 183° South  Level FlightAware Approximate
Wed 08:10:00 PM 26.7943 -78.6615 183° South  Level FlightAware Approximate
Wed 08:11:00 PM 26.6898 -78.6756 197° South  Level FlightAware Approximate
Wed 08:12:00 PM 26.5851 -78.6833 180° South  Level FlightAware Approximate
Wed 08:13:00 PM 26.5654 -78.7605 283° West  Level FlightAware Approximate
Wed 08:14:00 PM 26.6044 -78.8704 292° West  Level FlightAware Approximate
Wed 08:15:00 PM 26.6434 -78.9803 290° West  Level FlightAware Approximate
Wed 08:16:00 PM 26.6804 -79.0912 291° West  Level FlightAware Approximate
Wed 08:17:00 PM 26.7174 -79.2021 290° West  Level FlightAware Approximate
Wed 08:18:00 PM 26.7544 -79.3131 291° West  Level FlightAware Approximate
Wed 08:19:00 PM 26.7833 -79.4257 270° West  Level FlightAware Approximate
Wed 08:20:00 PM 26.8238 -79.5345 294° West  Level FlightAware Approximate
Wed 08:21:00 PM 26.8354 -79.6438 250° West  Level FlightAware Approximate
Wed 08:22:00 PM 26.7912 -79.7513 247° West  Level FlightAware Approximate
Wed 08:23:00 PM 26.7554 -79.8615 246° West  Level FlightAware Approximate
Wed 08:24:00 PM 26.7122 -79.9696 246° West  Level FlightAware Approximate
Wed 08:25:00 PM 26.6689 -80.0777 246° West  Level FlightAware Approximate
Wed 08:26:00 PM 26.6667 -80.0833 246° West  Level FlightAware Approximate
Wed 08:27:00 PM 26.6832 -80.0956 246° West  Level Estimated
Wed 08:28:00 PM 26.6832 -80.0956 246° West  Level Estimated
Wed 08:29:00 PM 26.6832 -80.0956 246° West  Level Estimated
Wed 08:30:00 PM 26.6832 -80.0956 246° West  Level Estimated
Wed 08:31:00 PM 26.6832 -80.0956 246° West  Level Estimated
Wed 08:32:00 PM 26.6832 -80.0956 246° West  Level Estimated
Wed 08:33:00 PM 26.6832 -80.0956 246° West  Level Estimated
Wed 08:34:00 PM 26.6832 -80.0956 246° West  Level Estimated
Wed 08:35:00 PM 26.6832 -80.0956 246° West  Level Estimated
Wed 08:36:00 PM 26.6832 -80.0956 246° West  Level Estimated
Wed 08:37:00 PM 26.6832 -80.0956 246° West  Level Estimated
Wed 08:38:00 PM 26.6832 -80.0956 246° West  Level Estimated
Wed 08:39:00 PM 26.6832 -80.0956 246° West  Level Estimated
Wed 08:40:00 PM 26.6832 -80.0956 246° West  Level Estimated
Wed 08:41:00 PM 26.6832 -80.0956 246° West  Level Estimated

Login

Don't have an account? Register now (free) for customized features, flight alerts, and more!